Time;durP1;ratioP1;P1;durP2;ratioP2;P2;SDS_P1;SDS_P2;PMS_P1;PMS_P2;Temp;Humidity;BMP_temperature;BMP_pressure;BME280_temperature;BME280_humidity;BME280_pressure;Samples;Min_cycle;Max_cycle;Signal;HPM_P1;HPM_P2
2021/08/29 00:00:55;0.00;0.00;0.62;0.00;0.00;0.62;3.87;1.40;;;26.90;37.10;;;;;;2244898;61;20392;-63
2021/08/29 00:03:39;0.00;0.00;0.62;0.00;0.00;0.62;3.10;1.60;;;26.90;37.10;;;;;;2245837;61;20401;-61
2021/08/29 00:06:25;0.00;0.00;0.62;0.00;0.00;0.62;1.90;1.50;;;26.90;37.00;;;;;;2244997;61;20481;-61
2021/08/29 00:09:10;0.00;0.00;0.62;0.00;0.00;0.62;1.40;1.20;;;26.90;37.00;;;;;;2245462;61;20575;-61
2021/08/29 00:11:55;0.00;0.00;0.62;0.00;0.00;0.62;1.70;1.30;;;26.80;37.00;;;;;;2245860;61;20346;-63
2021/08/29 00:14:39;0.00;0.00;0.62;0.00;0.00;0.62;2.30;1.70;;;26.80;37.00;;;;;;2244718;61;20446;-63
2021/08/29 00:17:24;0.00;0.00;0.62;0.00;0.00;0.62;1.60;1.50;;;26.90;37.10;;;;;;2245391;61;20402;-60
2021/08/29 00:20:10;0.00;0.00;0.62;0.00;0.00;0.62;2.03;1.50;;;26.80;37.00;;;;;;2245240;61;20421;-63
2021/08/29 00:22:56;0.00;0.00;0.62;0.00;0.00;0.62;1.80;1.33;;;26.80;37.10;;;;;;2245181;61;20365;-62
2021/08/29 00:25:40;0.00;0.00;0.62;0.00;0.00;0.62;2.13;1.47;;;26.90;37.10;;;;;;2245632;61;20436;-64
2021/08/29 00:28:26;0.00;0.00;0.62;0.00;0.00;0.62;1.87;1.27;;;26.80;37.10;;;;;;2245043;61;20612;-63
2021/08/29 00:31:10;0.00;0.00;0.62;0.00;0.00;0.62;2.07;1.37;;;26.80;37.00;;;;;;2245422;61;20361;-63
2021/08/29 00:33:55;0.00;0.00;0.62;0.00;0.00;0.62;2.10;1.50;;;26.80;37.10;;;;;;2245651;61;20431;-63
2021/08/29 00:36:39;0.00;0.00;0.62;0.00;0.00;0.62;1.80;1.47;;;26.80;37.10;;;;;;2244135;61;20384;-63
2021/08/29 00:39:25;0.00;0.00;0.62;0.00;0.00;0.62;1.70;1.47;;;26.80;37.00;;;;;;2245233;61;20377;-63
2021/08/29 00:42:10;0.00;0.00;0.62;0.00;0.00;0.62;2.77;1.77;;;26.80;37.10;;;;;;2245137;61;20397;-60
2021/08/29 00:44:56;0.00;0.00;0.62;0.00;0.00;0.62;2.47;1.77;;;26.80;37.00;;;;;;2244766;61;20365;-61
2021/08/29 00:47:41;0.00;0.00;0.62;0.00;0.00;0.62;2.30;1.63;;;26.80;37.00;;;;;;2245245;61;20422;-61
2021/08/29 00:50:28;0.00;0.00;0.62;0.00;0.00;0.62;2.00;1.50;;;26.80;37.00;;;;;;2244745;61;20490;-62
2021/08/29 00:53:14;0.00;0.00;0.62;0.00;0.00;0.62;1.67;1.40;;;26.80;37.00;;;;;;2244528;61;20365;-63
2021/08/29 00:56:00;0.00;0.00;0.62;0.00;0.00;0.62;2.10;1.90;;;26.80;37.00;;;;;;2244404;61;20369;-61
2021/08/29 00:58:46;0.00;0.00;0.62;0.00;0.00;0.62;2.63;1.27;;;26.80;37.00;;;;;;2243825;61;20372;-61
2021/08/29 01:01:38;0.00;0.00;0.62;0.00;0.00;0.62;2.10;1.70;;;26.80;37.00;;;;;;2244482;61;20432;-62
2021/08/29 01:04:29;0.00;0.00;0.62;0.00;0.00;0.62;2.17;1.60;;;26.80;37.00;;;;;;2244199;61;20369;-61
2021/08/29 01:07:22;0.00;0.00;0.62;0.00;0.00;0.62;2.00;1.80;;;26.80;37.00;;;;;;2243937;61;20381;-62
2021/08/29 01:10:16;0.00;0.00;0.62;0.00;0.00;0.62;3.20;2.40;;;26.80;37.00;;;;;;2245027;61;20366;-61
2021/08/29 01:13:12;0.00;0.00;0.62;0.00;0.00;0.62;2.37;1.87;;;26.80;37.00;;;;;;2243857;61;20393;-62
2021/08/29 01:16:02;0.00;0.00;0.62;0.00;0.00;0.62;2.80;2.07;;;26.80;37.00;;;;;;2244952;61;20689;-61
2021/08/29 01:18:52;0.00;0.00;0.62;0.00;0.00;0.62;1.97;1.60;;;26.80;37.00;;;;;;2244353;61;20370;-61
2021/08/29 01:21:37;0.00;0.00;0.62;0.00;0.00;0.62;2.27;1.73;;;26.80;37.00;;;;;;2244203;61;20381;-62
2021/08/29 01:24:27;0.00;0.00;0.62;0.00;0.00;0.62;2.83;2.13;;;26.80;37.00;;;;;;2244612;61;20402;-63
2021/08/29 01:27:21;0.00;0.00;0.62;0.00;0.00;0.62;2.33;1.87;;;26.80;37.00;;;;;;2244405;61;20484;-62
2021/08/29 01:30:10;0.00;0.00;0.62;0.00;0.00;0.62;2.00;1.80;;;26.80;37.00;;;;;;2244329;61;20720;-61
2021/08/29 01:32:56;0.00;0.00;0.62;0.00;0.00;0.62;3.30;1.77;;;26.80;37.00;;;;;;2244963;61;20401;-61
2021/08/29 01:35:42;0.00;0.00;0.62;0.00;0.00;0.62;2.10;1.80;;;26.80;37.00;;;;;;2243801;61;20361;-61
2021/08/29 01:38:28;0.00;0.00;0.62;0.00;0.00;0.62;3.00;2.10;;;26.80;37.00;;;;;;2244624;61;20389;-63
2021/08/29 01:41:16;0.00;0.00;0.62;0.00;0.00;0.62;2.57;1.93;;;26.80;37.00;;;;;;2245039;61;20444;-62
2021/08/29 01:44:02;0.00;0.00;0.62;0.00;0.00;0.62;2.50;1.93;;;26.80;37.00;;;;;;2241738;61;20635;-60
2021/08/29 01:46:49;0.00;0.00;0.62;0.00;0.00;0.62;2.47;2.00;;;26.80;37.00;;;;;;2244719;61;20417;-62
2021/08/29 01:49:34;0.00;0.00;0.62;0.00;0.00;0.62;2.03;1.63;;;26.80;37.00;;;;;;2238910;61;20448;-61
2021/08/29 01:52:20;0.00;0.00;0.62;0.00;0.00;0.62;2.10;1.77;;;26.80;37.00;;;;;;2244353;61;20360;-62
2021/08/29 01:55:40;0.00;0.00;0.62;0.00;0.00;0.62;3.07;2.30;;;26.80;37.00;;;;;;2228423;62;20430;-61
2021/08/29 01:58:38;0.00;0.00;0.62;0.00;0.00;0.62;2.10;1.80;;;26.80;37.00;;;;;;2241579;61;20360;-61
2021/08/29 02:01:24;0.00;0.00;0.62;0.00;0.00;0.62;2.10;1.70;;;26.80;37.00;;;;;;2244338;61;20388;-60
2021/08/29 02:04:15;0.00;0.00;0.62;0.00;0.00;0.62;2.40;1.93;;;26.80;37.00;;;;;;2244343;61;20445;-61
2021/08/29 02:07:13;0.00;0.00;0.62;0.00;0.00;0.62;2.43;1.70;;;26.80;37.00;;;;;;2244100;61;20409;-60
2021/08/29 02:10:04;0.00;0.00;0.62;0.00;0.00;0.62;1.90;1.70;;;26.80;37.00;;;;;;2244847;61;20692;-60
2021/08/29 02:12:59;0.00;0.00;0.62;0.00;0.00;0.62;3.23;2.23;;;26.80;37.00;;;;;;2243884;61;20615;-61
2021/08/29 02:15:55;0.00;0.00;0.62;0.00;0.00;0.62;2.57;2.23;;;26.80;37.00;;;;;;2244338;61;20365;-63
2021/08/29 02:18:42;0.00;0.00;0.62;0.00;0.00;0.62;2.00;1.80;;;26.70;36.90;;;;;;2238965;61;20714;-63
2021/08/29 02:21:30;0.00;0.00;0.62;0.00;0.00;0.62;2.33;2.10;;;26.80;37.00;;;;;;2243884;61;20614;-63
2021/08/29 02:24:15;0.00;0.00;0.62;0.00;0.00;0.62;2.40;1.90;;;26.70;36.90;;;;;;2244808;61;20755;-62
2021/08/29 02:27:00;0.00;0.00;0.62;0.00;0.00;0.62;2.13;1.80;;;26.70;36.90;;;;;;2244116;61;20397;-63
2021/08/29 02:29:46;0.00;0.00;0.62;0.00;0.00;0.62;2.20;1.73;;;26.70;36.90;;;;;;2244528;61;20409;-63
2021/08/29 02:32:33;0.00;0.00;0.62;0.00;0.00;0.62;2.63;1.73;;;26.70;36.90;;;;;;2242355;61;20393;-63
2021/08/29 02:35:18;0.00;0.00;0.62;0.00;0.00;0.62;2.13;1.83;;;26.70;36.90;;;;;;2244381;61;20729;-62
2021/08/29 02:38:10;0.00;0.00;0.62;0.00;0.00;0.62;2.10;1.70;;;26.70;36.90;;;;;;2244561;61;20734;-64
2021/08/29 02:40:59;0.00;0.00;0.62;0.00;0.00;0.62;2.17;1.97;;;26.70;36.90;;;;;;2244243;61;20386;-62
2021/08/29 02:43:45;0.00;0.00;0.62;0.00;0.00;0.62;2.43;2.10;;;26.70;36.90;;;;;;2243865;61;20393;-62
2021/08/29 02:46:30;0.00;0.00;0.62;0.00;0.00;0.62;3.00;1.97;;;26.70;36.90;;;;;;2245187;61;20457;-64
2021/08/29 02:49:15;0.00;0.00;0.62;0.00;0.00;0.62;1.80;1.70;;;26.70;36.90;;;;;;2244124;61;20700;-63
2021/08/29 02:52:00;0.00;0.00;0.62;0.00;0.00;0.62;2.37;2.17;;;26.70;36.90;;;;;;2241467;61;20373;-63
2021/08/29 02:54:48;0.00;0.00;0.62;0.00;0.00;0.62;2.00;1.53;;;26.70;36.90;;;;;;2244682;61;20385;-63
2021/08/29 02:57:35;0.00;0.00;0.62;0.00;0.00;0.62;2.23;1.77;;;26.70;36.90;;;;;;2240932;61;20389;-63
2021/08/29 03:00:39;0.00;0.00;0.62;0.00;0.00;0.62;2.53;1.97;;;26.70;36.90;;;;;;2244459;61;20575;-63
2021/08/29 03:03:34;0.00;0.00;0.62;0.00;0.00;0.62;2.20;2.00;;;26.70;36.90;;;;;;2244253;61;20587;-62
2021/08/29 03:06:20;0.00;0.00;0.62;0.00;0.00;0.62;2.50;1.80;;;26.70;36.90;;;;;;2243904;61;20366;-62
2021/08/29 03:09:05;0.00;0.00;0.62;0.00;0.00;0.62;2.43;1.90;;;26.70;36.90;;;;;;2245229;61;20768;-63
2021/08/29 03:11:54;0.00;0.00;0.62;0.00;0.00;0.62;2.40;2.10;;;26.70;37.00;;;;;;2243601;61;20389;-63
2021/08/29 03:15:10;0.00;0.00;0.62;0.00;0.00;0.62;2.30;2.00;;;26.60;36.90;;;;;;2242516;61;20374;-63
2021/08/29 03:17:56;0.00;0.00;0.62;0.00;0.00;0.62;2.20;2.00;;;26.70;37.00;;;;;;2244724;61;20747;-62
2021/08/29 03:20:41;0.00;0.00;0.62;0.00;0.00;0.62;2.50;2.00;;;26.70;36.90;;;;;;2243635;61;20715;-64
2021/08/29 03:23:27;0.00;0.00;0.62;0.00;0.00;0.62;2.93;1.53;;;26.60;36.90;;;;;;2245076;61;20451;-61
2021/08/29 03:26:13;0.00;0.00;0.62;0.00;0.00;0.62;1.93;1.73;;;26.70;37.70;;;;;;2243798;61;20370;-60
2021/08/29 03:29:00;0.00;0.00;0.62;0.00;0.00;0.62;2.60;2.20;;;26.60;36.90;;;;;;2244383;61;20721;-62
2021/08/29 03:31:45;0.00;0.00;0.62;0.00;0.00;0.62;3.00;2.07;;;26.60;36.90;;;;;;2241565;61;20590;-62
2021/08/29 03:34:31;0.00;0.00;0.62;0.00;0.00;0.62;2.33;2.13;;;26.70;37.00;;;;;;2243550;61;20409;-62
2021/08/29 03:37:18;0.00;0.00;0.62;0.00;0.00;0.62;2.50;2.00;;;26.60;37.00;;;;;;2244257;61;20498;-62
2021/08/29 03:40:07;0.00;0.00;0.62;0.00;0.00;0.62;3.07;2.30;;;26.60;37.00;;;;;;2243636;61;20438;-62
2021/08/29 03:42:54;0.00;0.00;0.62;0.00;0.00;0.62;2.40;1.63;;;26.60;37.00;;;;;;2241244;61;20421;-63
2021/08/29 03:45:40;0.00;0.00;0.62;0.00;0.00;0.62;2.37;2.17;;;26.60;37.00;;;;;;2244615;61;20741;-62
2021/08/29 03:48:26;0.00;0.00;0.62;0.00;0.00;0.62;2.20;2.00;;;26.60;37.10;;;;;;2243856;61;20389;-63
2021/08/29 03:51:14;0.00;0.00;0.62;0.00;0.00;0.62;1.77;1.60;;;26.60;37.10;;;;;;2241568;61;20366;-62
2021/08/29 03:53:59;0.00;0.00;0.62;0.00;0.00;0.62;1.80;1.30;;;26.60;37.10;;;;;;2241515;61;20896;-63
2021/08/29 03:56:45;0.00;0.00;0.62;0.00;0.00;0.62;2.20;2.00;;;26.60;37.10;;;;;;2243562;61;20425;-63
2021/08/29 03:59:30;0.00;0.00;0.62;0.00;0.00;0.62;2.83;2.00;;;26.60;37.10;;;;;;2241234;61;20365;-62
2021/08/29 04:02:19;0.00;0.00;0.62;0.00;0.00;0.62;2.47;1.90;;;26.60;37.10;;;;;;2244118;61;20444;-63
2021/08/29 04:05:05;0.00;0.00;0.62;0.00;0.00;0.62;1.93;1.73;;;26.60;37.10;;;;;;2241089;61;20369;-62
2021/08/29 04:07:51;0.00;0.00;0.62;0.00;0.00;0.62;2.40;2.10;;;26.60;37.10;;;;;;2244409;61;20389;-62
2021/08/29 04:10:39;0.00;0.00;0.62;0.00;0.00;0.62;3.40;1.97;;;26.60;37.10;;;;;;2244077;61;20481;-62
2021/08/29 04:13:25;0.00;0.00;0.62;0.00;0.00;0.62;2.40;2.07;;;26.60;37.10;;;;;;2243860;61;20398;-62
2021/08/29 04:16:23;0.00;0.00;0.62;0.00;0.00;0.62;1.90;1.67;;;26.60;37.10;;;;;;2244285;61;20591;-63
2021/08/29 04:19:16;0.00;0.00;0.62;0.00;0.00;0.62;2.93;1.60;;;26.60;37.10;;;;;;2243755;61;20581;-62
2021/08/29 04:22:01;0.00;0.00;0.62;0.00;0.00;0.62;2.10;1.50;;;26.50;37.10;;;;;;2243998;61;20437;-63
2021/08/29 04:24:49;0.00;0.00;0.62;0.00;0.00;0.62;2.53;1.63;;;26.60;37.10;;;;;;2244061;61;20442;-63
2021/08/29 04:27:36;0.00;0.00;0.62;0.00;0.00;0.62;2.50;2.07;;;26.50;37.10;;;;;;2240976;61;20428;-63
2021/08/29 04:30:22;0.00;0.00;0.62;0.00;0.00;0.62;2.53;1.90;;;26.60;37.10;;;;;;2244739;61;20447;-63
2021/08/29 04:33:07;0.00;0.00;0.62;0.00;0.00;0.62;1.83;1.63;;;26.50;37.10;;;;;;2243445;61;20414;-63
2021/08/29 04:36:16;0.00;0.00;0.62;0.00;0.00;0.62;2.50;1.90;;;26.60;37.10;;;;;;2244040;61;20376;-63
2021/08/29 04:39:05;0.00;0.00;0.62;0.00;0.00;0.62;2.80;2.27;;;26.60;37.10;;;;;;2241487;61;20769;-62
2021/08/29 04:41:49;0.00;0.00;0.62;0.00;0.00;0.62;1.77;1.43;;;26.50;37.10;;;;;;2244308;61;20466;-62
2021/08/29 04:44:34;0.00;0.00;0.62;0.00;0.00;0.62;1.83;1.50;;;26.50;37.10;;;;;;2245032;61;20369;-62
2021/08/29 04:47:19;0.00;0.00;0.62;0.00;0.00;0.62;1.93;1.67;;;26.50;37.10;;;;;;2244504;61;20405;-62
2021/08/29 04:50:09;0.00;0.00;0.62;0.00;0.00;0.62;2.90;1.90;;;26.50;37.10;;;;;;2245632;61;20361;-62
2021/08/29 04:52:56;0.00;0.00;0.62;0.00;0.00;0.62;2.10;1.50;;;26.50;37.10;;;;;;2245517;61;20421;-62
2021/08/29 04:55:41;0.00;0.00;0.62;0.00;0.00;0.62;2.10;1.50;;;26.50;37.10;;;;;;2245074;61;20490;-63
2021/08/29 04:58:26;0.00;0.00;0.62;0.00;0.00;0.62;2.97;1.90;;;26.50;37.10;;;;;;2245213;61;20410;-62
2021/08/29 05:01:10;0.00;0.00;0.62;0.00;0.00;0.62;3.00;1.87;;;26.50;37.00;;;;;;2245676;61;20438;-62
2021/08/29 05:03:55;0.00;0.00;0.62;0.00;0.00;0.62;1.70;1.57;;;26.50;37.10;;;;;;2245875;61;20374;-62
2021/08/29 05:06:40;0.00;0.00;0.62;0.00;0.00;0.62;1.60;1.40;;;26.50;37.10;;;;;;2246220;61;20428;-62
2021/08/29 05:09:30;0.00;0.00;0.62;0.00;0.00;0.62;2.70;1.83;;;26.50;37.10;;;;;;2244955;61;20388;-63
2021/08/29 05:12:15;0.00;0.00;0.62;0.00;0.00;0.62;2.30;1.87;;;26.50;37.10;;;;;;2245426;61;20365;-63
2021/08/29 05:15:01;0.00;0.00;0.62;0.00;0.00;0.62;2.07;1.67;;;26.50;37.10;;;;;;2245669;61;20778;-63
2021/08/29 05:17:46;0.00;0.00;0.62;0.00;0.00;0.62;1.77;1.53;;;26.50;37.10;;;;;;2245114;61;20385;-62
2021/08/29 05:20:31;0.00;0.00;0.62;0.00;0.00;0.62;2.07;1.63;;;26.50;37.10;;;;;;2245867;61;20409;-63
2021/08/29 05:23:34;0.00;0.00;0.62;0.00;0.00;0.62;1.67;1.40;;;26.50;37.10;;;;;;2246105;61;20370;-62
2021/08/29 05:26:37;0.00;0.00;0.62;0.00;0.00;0.62;1.70;1.43;;;26.50;37.10;;;;;;2245281;61;20405;-62
2021/08/29 05:29:21;0.00;0.00;0.62;0.00;0.00;0.62;1.80;1.33;;;26.50;37.10;;;;;;2246068;61;20370;-62
2021/08/29 05:32:08;0.00;0.00;0.62;0.00;0.00;0.62;3.37;2.07;;;26.50;37.10;;;;;;2242355;61;20369;-62
2021/08/29 05:34:57;0.00;0.00;0.62;0.00;0.00;0.62;1.93;1.50;;;26.50;37.20;;;;;;2245809;61;20734;-63
2021/08/29 05:37:41;0.00;0.00;0.62;0.00;0.00;0.62;2.27;1.67;;;26.50;37.10;;;;;;2245873;61;20433;-63
2021/08/29 05:40:44;0.00;0.00;0.62;0.00;0.00;0.62;2.30;1.30;;;26.50;37.20;;;;;;2245522;61;20365;-63
2021/08/29 05:43:56;0.00;0.00;0.62;0.00;0.00;0.62;1.70;1.50;;;26.50;37.20;;;;;;2244114;61;20361;-63
2021/08/29 05:46:45;0.00;0.00;0.62;0.00;0.00;0.62;2.10;1.47;;;26.50;37.10;;;;;;2245128;61;20380;-62
2021/08/29 05:49:30;0.00;0.00;0.62;0.00;0.00;0.62;1.93;1.43;;;26.50;37.10;;;;;;2245907;61;20474;-63
2021/08/29 05:52:14;0.00;0.00;0.62;0.00;0.00;0.62;1.53;1.30;;;26.50;37.20;;;;;;2246319;61;20430;-63
2021/08/29 05:54:59;0.00;0.00;0.62;0.00;0.00;0.62;1.97;1.70;;;26.40;37.10;;;;;;2244608;61;20712;-64
2021/08/29 05:57:43;0.00;0.00;0.62;0.00;0.00;0.62;1.50;1.23;;;26.50;37.20;;;;;;2246347;61;20464;-61
2021/08/29 06:00:30;0.00;0.00;0.62;0.00;0.00;0.62;1.70;1.40;;;26.50;37.20;;;;;;2245447;61;20369;-64
2021/08/29 06:03:18;0.00;0.00;0.62;0.00;0.00;0.62;1.90;1.20;;;26.50;37.20;;;;;;2239902;61;20495;-62
2021/08/29 06:06:02;0.00;0.00;0.62;0.00;0.00;0.62;2.13;1.30;;;26.50;37.20;;;;;;2243038;61;20397;-61
2021/08/29 06:08:58;0.00;0.00;0.62;0.00;0.00;0.62;2.37;1.60;;;26.50;37.20;;;;;;2242541;61;20369;-61
2021/08/29 06:11:42;0.00;0.00;0.62;0.00;0.00;0.62;1.67;1.47;;;26.40;37.10;;;;;;2245904;61;20365;-61
2021/08/29 06:14:27;0.00;0.00;0.62;0.00;0.00;0.62;1.57;1.23;;;26.50;37.20;;;;;;2245678;61;20413;-60
2021/08/29 06:17:16;0.00;0.00;0.62;0.00;0.00;0.62;1.97;1.47;;;26.40;37.10;;;;;;2241980;61;20402;-63
2021/08/29 06:20:01;0.00;0.00;0.62;0.00;0.00;0.62;1.80;1.40;;;26.40;37.10;;;;;;2245852;61;20437;-60
2021/08/29 06:22:46;0.00;0.00;0.62;0.00;0.00;0.62;2.30;1.50;;;26.40;37.10;;;;;;2245381;61;20393;-63
2021/08/29 06:25:50;0.00;0.00;0.62;0.00;0.00;0.62;1.80;1.47;;;26.40;37.00;;;;;;2245741;61;20385;-61
2021/08/29 06:28:58;0.00;0.00;0.62;0.00;0.00;0.62;1.83;1.47;;;26.40;37.00;;;;;;2241162;61;20373;-64
2021/08/29 06:32:19;0.00;0.00;0.62;0.00;0.00;0.62;4.20;1.73;;;26.40;37.00;;;;;;2245242;61;20366;-62
2021/08/29 06:35:10;0.00;0.00;0.62;0.00;0.00;0.62;2.30;1.93;;;26.40;37.10;;;;;;2245561;61;20386;-63
2021/08/29 06:38:05;0.00;0.00;0.62;0.00;0.00;0.62;2.00;1.67;;;26.40;37.10;;;;;;2245144;61;20426;-62
2021/08/29 06:40:49;0.00;0.00;0.62;0.00;0.00;0.62;2.17;1.97;;;26.40;37.00;;;;;;2242652;61;20628;-61
2021/08/29 06:43:34;0.00;0.00;0.62;0.00;0.00;0.62;2.03;1.73;;;26.40;37.00;;;;;;2246137;61;20402;-61
2021/08/29 06:46:37;0.00;0.00;0.62;0.00;0.00;0.62;3.57;2.20;;;26.40;37.00;;;;;;2245150;61;20610;-62
2021/08/29 06:49:42;0.00;0.00;0.62;0.00;0.00;0.62;2.00;1.40;;;26.30;36.80;;;;;;2246049;61;20397;-61
2021/08/29 06:52:45;0.00;0.00;0.62;0.00;0.00;0.62;2.40;2.00;;;26.40;36.90;;;;;;2245589;61;20498;-62
2021/08/29 06:55:53;0.00;0.00;0.62;0.00;0.00;0.62;1.70;1.43;;;26.30;36.80;;;;;;2245575;61;20437;-61
2021/08/29 06:58:37;0.00;0.00;0.62;0.00;0.00;0.62;2.40;2.00;;;26.30;36.80;;;;;;2246153;61;20353;-63
2021/08/29 07:01:22;0.00;0.00;0.62;0.00;0.00;0.62;2.80;1.80;;;26.30;36.80;;;;;;2245028;61;20429;-63
2021/08/29 07:04:06;0.00;0.00;0.62;0.00;0.00;0.62;2.67;2.00;;;26.30;36.70;;;;;;2246057;61;20361;-62
2021/08/29 07:06:53;0.00;0.00;0.62;0.00;0.00;0.62;2.63;1.97;;;26.30;36.70;;;;;;2245450;61;20804;-63
2021/08/29 07:09:58;0.00;0.00;0.62;0.00;0.00;0.62;2.17;1.70;;;26.20;36.70;;;;;;2244857;61;20378;-61
2021/08/29 07:12:42;0.00;0.00;0.62;0.00;0.00;0.62;3.10;2.10;;;26.20;36.70;;;;;;2245606;61;20567;-62
2021/08/29 07:18:29;0.00;0.00;0.62;0.00;0.00;0.62;2.87;1.73;;;26.20;36.80;;;;;;2313741;56;20624;-62
2021/08/29 07:21:29;0.00;0.00;0.62;0.00;0.00;0.62;2.10;1.50;;;26.20;36.90;;;;;;2244321;61;20425;-61
2021/08/29 07:24:14;0.00;0.00;0.62;0.00;0.00;0.62;1.87;1.70;;;26.20;36.90;;;;;;2245548;61;20413;-60
2021/08/29 07:27:35;0.00;0.00;0.62;0.00;0.00;0.62;2.23;2.00;;;26.20;37.00;;;;;;2232881;62;20610;-61
2021/08/29 07:30:39;0.00;0.00;0.62;0.00;0.00;0.62;2.03;1.50;;;26.10;36.90;;;;;;2241735;61;20377;-60
2021/08/29 07:33:32;0.00;0.00;0.62;0.00;0.00;0.62;1.77;1.27;;;26.20;37.10;;;;;;2242064;61;20346;-60
2021/08/29 07:36:28;0.00;0.00;0.62;0.00;0.00;0.62;2.10;1.70;;;26.10;37.00;;;;;;2242383;61;20652;-63
2021/08/29 07:39:25;0.00;0.00;0.62;0.00;0.00;0.62;2.10;1.80;;;26.10;37.00;;;;;;2242330;61;20748;-63
2021/08/29 07:42:10;0.00;0.00;0.62;0.00;0.00;0.62;2.50;1.80;;;26.10;37.10;;;;;;2245525;61;20405;-62
2021/08/29 07:44:55;0.00;0.00;0.62;0.00;0.00;0.62;1.77;1.37;;;26.10;37.10;;;;;;2245516;61;20759;-62
2021/08/29 07:47:43;0.00;0.00;0.62;0.00;0.00;0.62;4.80;1.97;;;26.10;37.10;;;;;;2241812;61;20425;-62
2021/08/29 07:50:28;0.00;0.00;0.62;0.00;0.00;0.62;1.70;1.40;;;26.10;37.10;;;;;;2242384;61;20717;-62
2021/08/29 07:53:13;0.00;0.00;0.62;0.00;0.00;0.62;2.10;1.60;;;26.10;37.10;;;;;;2242720;61;20366;-62
2021/08/29 07:56:30;0.00;0.00;0.62;0.00;0.00;0.62;1.80;1.43;;;26.10;37.10;;;;;;2245139;61;20398;-63
2021/08/29 07:59:15;0.00;0.00;0.62;0.00;0.00;0.62;2.00;1.50;;;26.00;37.10;;;;;;2245930;61;20510;-63
2021/08/29 08:02:00;0.00;0.00;0.62;0.00;0.00;0.62;2.20;1.50;;;26.00;37.10;;;;;;2242024;61;20780;-62
2021/08/29 08:05:25;0.00;0.00;0.62;0.00;0.00;0.62;1.83;1.40;;;26.00;37.10;;;;;;2232814;62;20404;-60
2021/08/29 08:08:28;0.00;0.00;0.62;0.00;0.00;0.62;2.33;1.70;;;26.00;37.20;;;;;;2232905;62;20383;-62
2021/08/29 08:11:33;0.00;0.00;0.62;0.00;0.00;0.62;2.50;1.80;;;26.00;37.20;;;;;;2245537;61;20364;-61
2021/08/29 08:14:18;0.00;0.00;0.62;0.00;0.00;0.62;2.13;1.50;;;26.00;37.90;;;;;;2245758;61;20818;-63
2021/08/29 08:17:03;0.00;0.00;0.62;0.00;0.00;0.62;2.13;1.70;;;26.00;37.20;;;;;;2244998;61;20364;-63
2021/08/29 08:19:55;0.00;0.00;0.62;0.00;0.00;0.62;1.63;1.30;;;26.00;37.30;;;;;;2243645;61;20378;-63
2021/08/29 08:22:39;0.00;0.00;0.62;0.00;0.00;0.62;2.00;1.50;;;26.00;37.30;;;;;;2243950;61;20385;-62
2021/08/29 08:25:50;0.00;0.00;0.62;0.00;0.00;0.62;2.13;1.83;;;26.00;37.30;;;;;;2243650;61;20376;-62
2021/08/29 08:28:55;0.00;0.00;0.62;0.00;0.00;0.62;1.80;1.50;;;25.90;37.20;;;;;;2247159;61;20542;-63
2021/08/29 08:32:03;0.00;0.00;0.62;0.00;0.00;0.62;1.70;1.40;;;25.90;37.30;;;;;;2246505;61;20361;-63
2021/08/29 08:35:11;0.00;0.00;0.62;0.00;0.00;0.62;2.37;1.40;;;25.90;37.30;;;;;;2245352;61;20428;-62
2021/08/29 08:37:55;0.00;0.00;0.62;0.00;0.00;0.62;1.77;1.30;;;25.90;37.40;;;;;;2246872;61;20801;-63
2021/08/29 08:41:12;0.00;0.00;0.62;0.00;0.00;0.62;1.80;1.30;;;25.90;37.40;;;;;;2243587;61;20587;-62
2021/08/29 08:44:25;0.00;0.00;0.62;0.00;0.00;0.62;1.90;1.20;;;25.90;37.40;;;;;;2243982;61;20408;-62
2021/08/29 08:47:31;0.00;0.00;0.62;0.00;0.00;0.62;1.80;1.57;;;25.90;37.50;;;;;;2246243;61;20788;-62
2021/08/29 08:50:36;0.00;0.00;0.62;0.00;0.00;0.62;3.80;1.87;;;25.90;37.60;;;;;;2246964;61;20361;-63
2021/08/29 08:53:50;0.00;0.00;0.62;0.00;0.00;0.62;2.17;1.40;;;25.90;37.60;;;;;;2243665;61;20450;-62
2021/08/29 08:57:01;0.00;0.00;0.62;0.00;0.00;0.62;3.17;2.17;;;25.90;37.70;;;;;;2244021;61;20369;-61
2021/08/29 09:00:16;0.00;0.00;0.62;0.00;0.00;0.62;2.63;1.90;;;25.90;37.80;;;;;;2243907;61;20369;-62
2021/08/29 09:03:20;0.00;0.00;0.62;0.00;0.00;0.62;2.90;2.07;;;25.90;38.00;;;;;;2244214;61;20389;-63
2021/08/29 09:06:23;0.00;0.00;0.62;0.00;0.00;0.62;2.27;2.00;;;25.90;38.00;;;;;;2243814;61;20365;-63
2021/08/29 09:09:07;0.00;0.00;0.62;0.00;0.00;0.62;3.70;1.97;;;25.90;38.00;;;;;;2243094;61;20420;-63
2021/08/29 09:11:52;0.00;0.00;0.62;0.00;0.00;0.62;2.47;2.00;;;26.00;38.20;;;;;;2246728;61;20354;-62
2021/08/29 09:14:44;0.00;0.00;0.62;0.00;0.00;0.62;3.23;2.40;;;26.00;38.20;;;;;;2243849;61;20401;-65
2021/08/29 09:17:37;0.00;0.00;0.62;0.00;0.00;0.62;3.77;2.60;;;26.00;38.20;;;;;;2243230;61;20381;-62
2021/08/29 09:20:27;0.00;0.00;0.62;0.00;0.00;0.62;4.27;3.10;;;26.00;38.20;;;;;;2246530;61;20377;-62
2021/08/29 09:23:15;0.00;0.00;0.62;0.00;0.00;0.62;3.90;2.80;;;26.00;38.20;;;;;;2243132;61;20393;-62
2021/08/29 09:26:03;0.00;0.00;0.62;0.00;0.00;0.62;3.13;2.50;;;26.00;38.20;;;;;;2246717;61;20433;-62
2021/08/29 09:28:49;0.00;0.00;0.62;0.00;0.00;0.62;3.77;3.10;;;26.00;38.10;;;;;;2246790;61;20422;-60
2021/08/29 09:31:43;0.00;0.00;0.62;0.00;0.00;0.62;3.03;2.33;;;26.00;38.10;;;;;;2242559;61;20374;-61
2021/08/29 09:34:30;0.00;0.00;0.62;0.00;0.00;0.62;3.50;2.43;;;26.00;38.10;;;;;;2242867;61;20619;-62
2021/08/29 09:37:21;0.00;0.00;0.62;0.00;0.00;0.62;3.10;2.40;;;26.10;38.20;;;;;;2242865;61;20594;-60
2021/08/29 09:40:21;0.00;0.00;0.62;0.00;0.00;0.62;2.67;2.20;;;26.10;38.20;;;;;;2242681;61;20394;-59
2021/08/29 09:43:36;0.00;0.00;0.62;0.00;0.00;0.62;3.20;2.13;;;26.10;38.20;;;;;;2246229;61;20389;-65
2021/08/29 09:46:21;0.00;0.00;0.62;0.00;0.00;0.62;2.63;2.27;;;26.10;38.20;;;;;;2242492;61;20413;-62
2021/08/29 09:49:32;0.00;0.00;0.62;0.00;0.00;0.62;3.43;2.50;;;26.10;38.30;;;;;;2246034;61;20590;-63
2021/08/29 09:52:32;0.00;0.00;0.62;0.00;0.00;0.62;2.60;1.93;;;26.10;38.30;;;;;;2243037;61;20357;-62
2021/08/29 09:55:31;0.00;0.00;0.62;0.00;0.00;0.62;3.03;2.37;;;26.10;38.40;;;;;;2242740;61;20369;-64
2021/08/29 09:58:41;0.00;0.00;0.62;0.00;0.00;0.62;3.43;2.43;;;26.10;38.40;;;;;;2246194;61;20389;-63
2021/08/29 10:01:54;0.00;0.00;0.62;0.00;0.00;0.62;3.00;2.00;;;26.10;38.40;;;;;;2241766;61;20632;-64
2021/08/29 10:04:47;0.00;0.00;0.62;0.00;0.00;0.62;2.23;2.03;;;26.10;38.40;;;;;;2243095;61;20636;-64
2021/08/29 10:07:32;0.00;0.00;0.62;0.00;0.00;0.62;2.70;2.07;;;26.10;38.40;;;;;;2242255;61;20409;-62
2021/08/29 10:10:21;0.00;0.00;0.62;0.00;0.00;0.62;3.93;2.23;;;26.10;38.50;;;;;;2242839;61;20372;-63
2021/08/29 10:13:07;0.00;0.00;0.62;0.00;0.00;0.62;3.03;1.90;;;26.10;38.50;;;;;;2243052;61;20398;-64
2021/08/29 10:15:52;0.00;0.00;0.62;0.00;0.00;0.62;3.87;2.30;;;26.20;38.60;;;;;;2242422;61;20366;-64
2021/08/29 10:19:15;0.00;0.00;0.62;0.00;0.00;0.62;2.03;1.70;;;26.20;38.60;;;;;;2237011;62;20608;-64
2021/08/29 10:22:19;0.00;0.00;0.62;0.00;0.00;0.62;3.30;2.60;;;26.20;38.60;;;;;;2245484;61;20397;-63
2021/08/29 10:25:05;0.00;0.00;0.62;0.00;0.00;0.62;3.37;2.20;;;26.20;38.60;;;;;;2241942;61;20441;-61
2021/08/29 10:28:03;0.00;0.00;0.62;0.00;0.00;0.62;2.13;1.83;;;26.20;38.60;;;;;;2242878;61;20457;-61
2021/08/29 10:31:05;0.00;0.00;0.62;0.00;0.00;0.62;2.77;2.07;;;26.20;38.60;;;;;;2244649;61;20450;-62
2021/08/29 10:34:19;0.00;0.00;0.62;0.00;0.00;0.62;2.80;2.20;;;26.20;38.60;;;;;;2245486;61;20381;-61
2021/08/29 10:37:05;0.00;0.00;0.62;0.00;0.00;0.62;3.27;2.20;;;26.20;38.60;;;;;;2242334;61;20598;-63
2021/08/29 10:40:08;0.00;0.00;0.62;0.00;0.00;0.62;2.37;1.73;;;26.20;38.60;;;;;;2245500;61;20515;-64
2021/08/29 10:43:11;0.00;0.00;0.62;0.00;0.00;0.62;2.50;2.20;;;26.20;38.70;;;;;;2242980;61;20428;-63
2021/08/29 10:46:22;0.00;0.00;0.62;0.00;0.00;0.62;2.40;1.87;;;26.20;38.60;;;;;;2242596;61;20439;-63
2021/08/29 10:49:26;0.00;0.00;0.62;0.00;0.00;0.62;2.90;1.60;;;26.20;38.60;;;;;;2245710;61;20397;-62
2021/08/29 10:52:11;0.00;0.00;0.62;0.00;0.00;0.62;3.20;2.30;;;26.20;38.60;;;;;;2242171;61;20358;-63
2021/08/29 10:55:01;0.00;0.00;0.62;0.00;0.00;0.62;2.30;1.80;;;26.30;38.60;;;;;;2245453;61;20459;-63
2021/08/29 10:57:49;0.00;0.00;0.62;0.00;0.00;0.62;2.13;1.70;;;26.30;38.60;;;;;;2242797;61;20748;-63
2021/08/29 11:00:35;0.00;0.00;0.62;0.00;0.00;0.62;2.83;2.30;;;26.20;38.60;;;;;;2245058;61;20370;-63
2021/08/29 11:03:45;0.00;0.00;0.62;0.00;0.00;0.62;3.33;1.87;;;26.30;38.60;;;;;;2245705;61;20361;-63
2021/08/29 11:06:58;0.00;0.00;0.62;0.00;0.00;0.62;3.20;2.00;;;26.30;38.60;;;;;;2245287;61;20381;-63
2021/08/29 11:09:45;0.00;0.00;0.62;0.00;0.00;0.62;2.90;2.17;;;26.30;38.90;;;;;;2245213;61;20650;-64
2021/08/29 11:12:32;0.00;0.00;0.62;0.00;0.00;0.62;5.83;2.20;;;26.30;39.20;;;;;;2242902;61;20365;-65
2021/08/29 11:15:37;0.00;0.00;0.62;0.00;0.00;0.62;6.40;2.10;;;26.30;39.40;;;;;;2242266;61;20745;-61
2021/08/29 11:19:13;0.00;0.00;0.62;0.00;0.00;0.62;3.97;2.00;;;26.30;39.60;;;;;;2242495;61;20401;-61
2021/08/29 11:22:23;0.00;0.00;0.62;0.00;0.00;0.62;5.73;2.17;;;26.30;39.60;;;;;;2245255;61;20385;-62